sensor_id;sensor_type;location;lat;lon;timestamp;P1;durP1;ratioP1;P2;durP2;ratioP2
68806;SDS011;55800;54.272;18.558;2023-08-30T00:00:50;34.78;;;19.15;;
68806;SDS011;55800;54.272;18.558;2023-08-30T00:03:33;31.67;;;16.35;;
68806;SDS011;55800;54.272;18.558;2023-08-30T00:06:03;28.23;;;18.05;;
68806;SDS011;55800;54.272;18.558;2023-08-30T00:08:33;29.90;;;16.23;;
68806;SDS011;55800;54.272;18.558;2023-08-30T00:11:03;32.92;;;16.58;;
68806;SDS011;55800;54.272;18.558;2023-08-30T00:13:32;35.13;;;18.80;;
68806;SDS011;55800;54.272;18.558;2023-08-30T00:16:02;31.65;;;16.58;;
68806;SDS011;55800;54.272;18.558;2023-08-30T00:18:34;33.70;;;17.58;;
68806;SDS011;55800;54.272;18.558;2023-08-30T00:21:03;36.75;;;19.38;;
68806;SDS011;55800;54.272;18.558;2023-08-30T00:23:34;34.72;;;19.67;;
68806;SDS011;55800;54.272;18.558;2023-08-30T00:28:33;39.08;;;18.67;;
68806;SDS011;55800;54.272;18.558;2023-08-30T00:33:31;35.50;;;18.27;;
68806;SDS011;55800;54.272;18.558;2023-08-30T00:36:02;35.83;;;19.05;;
68806;SDS011;55800;54.272;18.558;2023-08-30T00:38:32;44.35;;;22.10;;
68806;SDS011;55800;54.272;18.558;2023-08-30T00:41:02;36.88;;;17.98;;
68806;SDS011;55800;54.272;18.558;2023-08-30T00:43:31;37.63;;;18.65;;
68806;SDS011;55800;54.272;18.558;2023-08-30T00:46:00;37.47;;;19.48;;
68806;SDS011;55800;54.272;18.558;2023-08-30T00:48:30;40.30;;;19.67;;
68806;SDS011;55800;54.272;18.558;2023-08-30T00:53:30;37.08;;;19.42;;
68806;SDS011;55800;54.272;18.558;2023-08-30T00:55:59;38.33;;;19.05;;
68806;SDS011;55800;54.272;18.558;2023-08-30T00:58:29;33.22;;;18.42;;
68806;SDS011;55800;54.272;18.558;2023-08-30T01:00:59;39.40;;;19.30;;
68806;SDS011;55800;54.272;18.558;2023-08-30T01:03:28;35.70;;;21.45;;
68806;SDS011;55800;54.272;18.558;2023-08-30T01:05:57;42.55;;;20.33;;
68806;SDS011;55800;54.272;18.558;2023-08-30T01:08:28;32.88;;;17.23;;
68806;SDS011;55800;54.272;18.558;2023-08-30T01:10:59;37.08;;;17.05;;
68806;SDS011;55800;54.272;18.558;2023-08-30T01:13:40;33.15;;;17.05;;
68806;SDS011;55800;54.272;18.558;2023-08-30T01:16:15;30.90;;;14.95;;
68806;SDS011;55800;54.272;18.558;2023-08-30T01:18:47;36.53;;;18.73;;
68806;SDS011;55800;54.272;18.558;2023-08-30T01:21:21;30.73;;;16.58;;
68806;SDS011;55800;54.272;18.558;2023-08-30T01:24:02;32.50;;;16.50;;
68806;SDS011;55800;54.272;18.558;2023-08-30T01:26:37;34.70;;;16.23;;
68806;SDS011;55800;54.272;18.558;2023-08-30T01:29:14;25.85;;;15.88;;
68806;SDS011;55800;54.272;18.558;2023-08-30T01:31:47;29.52;;;14.75;;
68806;SDS011;55800;54.272;18.558;2023-08-30T01:34:18;24.58;;;13.52;;
68806;SDS011;55800;54.272;18.558;2023-08-30T01:36:50;23.00;;;12.45;;
68806;SDS011;55800;54.272;18.558;2023-08-30T01:39:20;20.48;;;11.88;;
68806;SDS011;55800;54.272;18.558;2023-08-30T01:41:50;20.95;;;12.07;;
68806;SDS011;55800;54.272;18.558;2023-08-30T01:44:27;20.55;;;12.32;;
68806;SDS011;55800;54.272;18.558;2023-08-30T01:46:58;19.35;;;11.93;;
68806;SDS011;55800;54.272;18.558;2023-08-30T01:49:29;18.80;;;11.77;;
68806;SDS011;55800;54.272;18.558;2023-08-30T01:52:00;17.58;;;11.02;;
68806;SDS011;55800;54.272;18.558;2023-08-30T01:54:31;20.00;;;11.02;;
68806;SDS011;55800;54.272;18.558;2023-08-30T01:57:01;16.55;;;11.05;;
68806;SDS011;55800;54.272;18.558;2023-08-30T01:59:32;18.60;;;10.60;;
68806;SDS011;55800;54.272;18.558;2023-08-30T02:02:02;17.90;;;11.02;;
68806;SDS011;55800;54.272;18.558;2023-08-30T02:04:32;17.15;;;10.43;;
68806;SDS011;55800;54.272;18.558;2023-08-30T02:07:02;15.23;;;9.93;;
68806;SDS011;55800;54.272;18.558;2023-08-30T02:09:37;19.85;;;10.10;;
68806;SDS011;55800;54.272;18.558;2023-08-30T02:12:15;15.15;;;7.68;;
68806;SDS011;55800;54.272;18.558;2023-08-30T02:14:48;10.68;;;7.93;;
68806;SDS011;55800;54.272;18.558;2023-08-30T02:17:17;15.45;;;9.45;;
68806;SDS011;55800;54.272;18.558;2023-08-30T02:19:47;11.82;;;7.95;;
68806;SDS011;55800;54.272;18.558;2023-08-30T02:22:19;12.10;;;7.55;;
68806;SDS011;55800;54.272;18.558;2023-08-30T02:24:49;11.75;;;7.43;;
68806;SDS011;55800;54.272;18.558;2023-08-30T02:27:19;12.88;;;6.90;;
68806;SDS011;55800;54.272;18.558;2023-08-30T02:29:51;10.65;;;6.68;;
68806;SDS011;55800;54.272;18.558;2023-08-30T02:32:20;10.40;;;7.03;;
68806;SDS011;55800;54.272;18.558;2023-08-30T02:34:50;9.13;;;6.35;;
68806;SDS011;55800;54.272;18.558;2023-08-30T02:37:20;9.27;;;7.05;;
68806;SDS011;55800;54.272;18.558;2023-08-30T02:39:50;7.93;;;5.50;;
68806;SDS011;55800;54.272;18.558;2023-08-30T02:42:19;12.75;;;6.28;;
68806;SDS011;55800;54.272;18.558;2023-08-30T02:44:48;8.55;;;5.70;;
68806;SDS011;55800;54.272;18.558;2023-08-30T02:47:19;9.98;;;6.03;;
68806;SDS011;55800;54.272;18.558;2023-08-30T02:49:48;10.07;;;5.70;;
68806;SDS011;55800;54.272;18.558;2023-08-30T02:52:18;8.95;;;6.22;;
68806;SDS011;55800;54.272;18.558;2023-08-30T02:54:48;9.38;;;5.93;;
68806;SDS011;55800;54.272;18.558;2023-08-30T02:57:17;8.70;;;5.07;;
68806;SDS011;55800;54.272;18.558;2023-08-30T02:59:46;9.90;;;5.82;;
68806;SDS011;55800;54.272;18.558;2023-08-30T03:02:18;12.43;;;6.50;;
68806;SDS011;55800;54.272;18.558;2023-08-30T03:04:48;8.32;;;5.70;;
68806;SDS011;55800;54.272;18.558;2023-08-30T03:07:19;11.00;;;5.63;;
68806;SDS011;55800;54.272;18.558;2023-08-30T03:09:51;11.93;;;6.72;;
68806;SDS011;55800;54.272;18.558;2023-08-30T03:12:22;9.73;;;5.75;;
68806;SDS011;55800;54.272;18.558;2023-08-30T03:14:51;9.23;;;5.85;;
68806;SDS011;55800;54.272;18.558;2023-08-30T03:17:23;9.07;;;5.68;;
68806;SDS011;55800;54.272;18.558;2023-08-30T03:19:53;9.40;;;5.68;;
68806;SDS011;55800;54.272;18.558;2023-08-30T03:22:22;9.82;;;5.40;;
68806;SDS011;55800;54.272;18.558;2023-08-30T03:24:52;10.70;;;5.85;;
68806;SDS011;55800;54.272;18.558;2023-08-30T03:29:50;12.25;;;6.32;;
68806;SDS011;55800;54.272;18.558;2023-08-30T03:34:50;8.85;;;4.70;;
68806;SDS011;55800;54.272;18.558;2023-08-30T03:37:19;6.90;;;5.00;;
68806;SDS011;55800;54.272;18.558;2023-08-30T03:39:48;7.95;;;5.40;;
68806;SDS011;55800;54.272;18.558;2023-08-30T03:44:47;8.02;;;4.60;;
68806;SDS011;55800;54.272;18.558;2023-08-30T03:49:45;8.32;;;5.00;;
68806;SDS011;55800;54.272;18.558;2023-08-30T03:52:16;8.07;;;4.72;;
68806;SDS011;55800;54.272;18.558;2023-08-30T03:54:46;6.53;;;4.15;;
68806;SDS011;55800;54.272;18.558;2023-08-30T03:57:15;5.47;;;3.35;;
68806;SDS011;55800;54.272;18.558;2023-08-30T03:59:44;3.97;;;2.60;;
68806;SDS011;55800;54.272;18.558;2023-08-30T04:04:42;4.03;;;2.17;;
68806;SDS011;55800;54.272;18.558;2023-08-30T04:07:16;3.83;;;2.42;;
68806;SDS011;55800;54.272;18.558;2023-08-30T04:09:47;3.80;;;2.25;;
68806;SDS011;55800;54.272;18.558;2023-08-30T04:12:18;3.03;;;2.20;;
68806;SDS011;55800;54.272;18.558;2023-08-30T04:14:48;4.15;;;1.95;;
68806;SDS011;55800;54.272;18.558;2023-08-30T04:17:17;4.50;;;2.60;;
68806;SDS011;55800;54.272;18.558;2023-08-30T04:19:47;3.72;;;1.75;;
68806;SDS011;55800;54.272;18.558;2023-08-30T04:22:20;6.15;;;2.17;;
68806;SDS011;55800;54.272;18.558;2023-08-30T04:24:50;2.70;;;1.83;;
68806;SDS011;55800;54.272;18.558;2023-08-30T04:27:20;2.50;;;1.77;;
68806;SDS011;55800;54.272;18.558;2023-08-30T04:29:51;3.28;;;1.75;;
68806;SDS011;55800;54.272;18.558;2023-08-30T04:32:21;2.83;;;1.40;;
68806;SDS011;55800;54.272;18.558;2023-08-30T04:34:50;2.15;;;1.60;;
68806;SDS011;55800;54.272;18.558;2023-08-30T04:39:50;2.30;;;1.38;;
68806;SDS011;55800;54.272;18.558;2023-08-30T04:42:20;3.80;;;2.42;;
68806;SDS011;55800;54.272;18.558;2023-08-30T04:44:50;4.35;;;2.08;;
68806;SDS011;55800;54.272;18.558;2023-08-30T04:47:22;2.50;;;1.88;;
68806;SDS011;55800;54.272;18.558;2023-08-30T04:49:52;3.28;;;2.38;;
68806;SDS011;55800;54.272;18.558;2023-08-30T04:52:23;3.53;;;2.60;;
68806;SDS011;55800;54.272;18.558;2023-08-30T04:54:55;3.80;;;2.60;;
68806;SDS011;55800;54.272;18.558;2023-08-30T04:57:26;4.40;;;2.83;;
68806;SDS011;55800;54.272;18.558;2023-08-30T04:59:56;3.92;;;2.55;;
68806;SDS011;55800;54.272;18.558;2023-08-30T05:02:26;4.25;;;2.72;;
68806;SDS011;55800;54.272;18.558;2023-08-30T05:05:01;5.65;;;3.53;;
68806;SDS011;55800;54.272;18.558;2023-08-30T05:07:33;6.03;;;3.28;;
68806;SDS011;55800;54.272;18.558;2023-08-30T05:10:04;3.90;;;2.70;;
68806;SDS011;55800;54.272;18.558;2023-08-30T05:12:34;4.65;;;2.88;;
68806;SDS011;55800;54.272;18.558;2023-08-30T05:15:05;5.80;;;4.10;;
68806;SDS011;55800;54.272;18.558;2023-08-30T05:17:36;5.05;;;3.58;;
68806;SDS011;55800;54.272;18.558;2023-08-30T05:20:06;11.85;;;5.97;;
68806;SDS011;55800;54.272;18.558;2023-08-30T05:22:37;7.05;;;4.30;;
68806;SDS011;55800;54.272;18.558;2023-08-30T05:25:08;5.68;;;3.53;;
68806;SDS011;55800;54.272;18.558;2023-08-30T05:27:37;5.18;;;3.47;;
68806;SDS011;55800;54.272;18.558;2023-08-30T05:30:07;4.88;;;3.63;;
68806;SDS011;55800;54.272;18.558;2023-08-30T05:32:38;6.97;;;3.70;;
68806;SDS011;55800;54.272;18.558;2023-08-30T05:35:20;6.03;;;4.30;;
68806;SDS011;55800;54.272;18.558;2023-08-30T05:38:14;5.63;;;3.78;;
68806;SDS011;55800;54.272;18.558;2023-08-30T05:40:58;7.50;;;4.07;;
68806;SDS011;55800;54.272;18.558;2023-08-30T05:43:28;4.57;;;3.15;;
68806;SDS011;55800;54.272;18.558;2023-08-30T05:45:58;4.70;;;3.30;;
68806;SDS011;55800;54.272;18.558;2023-08-30T05:48:30;4.78;;;3.15;;
68806;SDS011;55800;54.272;18.558;2023-08-30T05:51:01;4.43;;;2.50;;
68806;SDS011;55800;54.272;18.558;2023-08-30T05:53:32;4.28;;;2.50;;
68806;SDS011;55800;54.272;18.558;2023-08-30T05:56:02;5.22;;;2.88;;
68806;SDS011;55800;54.272;18.558;2023-08-30T05:58:32;4.40;;;2.05;;
68806;SDS011;55800;54.272;18.558;2023-08-30T06:01:02;5.40;;;2.22;;
68806;SDS011;55800;54.272;18.558;2023-08-30T06:03:33;4.70;;;2.33;;
68806;SDS011;55800;54.272;18.558;2023-08-30T06:06:03;5.25;;;2.58;;
68806;SDS011;55800;54.272;18.558;2023-08-30T06:08:34;4.65;;;2.45;;
68806;SDS011;55800;54.272;18.558;2023-08-30T06:11:03;5.88;;;3.25;;
68806;SDS011;55800;54.272;18.558;2023-08-30T06:13:33;5.90;;;2.85;;
68806;SDS011;55800;54.272;18.558;2023-08-30T06:16:02;6.43;;;2.90;;
68806;SDS011;55800;54.272;18.558;2023-08-30T06:18:32;4.93;;;2.45;;
68806;SDS011;55800;54.272;18.558;2023-08-30T06:21:01;3.90;;;2.60;;
68806;SDS011;55800;54.272;18.558;2023-08-30T06:23:33;5.68;;;2.20;;
68806;SDS011;55800;54.272;18.558;2023-08-30T06:26:06;3.97;;;2.10;;
68806;SDS011;55800;54.272;18.558;2023-08-30T06:28:35;2.65;;;1.70;;
68806;SDS011;55800;54.272;18.558;2023-08-30T06:31:04;4.50;;;1.70;;
68806;SDS011;55800;54.272;18.558;2023-08-30T06:33:34;4.22;;;1.98;;
68806;SDS011;55800;54.272;18.558;2023-08-30T06:36:06;3.03;;;1.42;;
68806;SDS011;55800;54.272;18.558;2023-08-30T06:38:39;3.15;;;1.55;;
68806;SDS011;55800;54.272;18.558;2023-08-30T06:41:09;2.95;;;1.45;;
68806;SDS011;55800;54.272;18.558;2023-08-30T06:43:38;3.60;;;1.55;;
68806;SDS011;55800;54.272;18.558;2023-08-30T06:46:07;2.97;;;1.65;;
68806;SDS011;55800;54.272;18.558;2023-08-30T06:48:37;3.83;;;1.20;;
68806;SDS011;55800;54.272;18.558;2023-08-30T06:51:06;4.18;;;1.70;;
68806;SDS011;55800;54.272;18.558;2023-08-30T06:53:36;2.67;;;1.30;;
68806;SDS011;55800;54.272;18.558;2023-08-30T06:56:07;2.15;;;1.63;;
68806;SDS011;55800;54.272;18.558;2023-08-30T06:58:37;3.42;;;2.08;;
68806;SDS011;55800;54.272;18.558;2023-08-30T07:01:06;2.50;;;1.92;;
68806;SDS011;55800;54.272;18.558;2023-08-30T07:03:36;4.75;;;2.20;;
68806;SDS011;55800;54.272;18.558;2023-08-30T07:06:07;5.28;;;2.30;;
68806;SDS011;55800;54.272;18.558;2023-08-30T07:08:36;2.85;;;1.50;;
68806;SDS011;55800;54.272;18.558;2023-08-30T07:11:08;3.83;;;1.75;;
68806;SDS011;55800;54.272;18.558;2023-08-30T07:13:57;2.75;;;1.70;;
68806;SDS011;55800;54.272;18.558;2023-08-30T07:16:27;4.40;;;1.80;;
68806;SDS011;55800;54.272;18.558;2023-08-30T07:18:56;1.40;;;1.10;;
68806;SDS011;55800;54.272;18.558;2023-08-30T07:21:25;2.10;;;1.00;;
68806;SDS011;55800;54.272;18.558;2023-08-30T07:23:55;2.47;;;1.15;;
68806;SDS011;55800;54.272;18.558;2023-08-30T07:26:26;1.23;;;1.00;;
68806;SDS011;55800;54.272;18.558;2023-08-30T07:28:55;1.10;;;0.65;;
68806;SDS011;55800;54.272;18.558;2023-08-30T07:31:25;2.17;;;1.13;;
68806;SDS011;55800;54.272;18.558;2023-08-30T07:33:54;1.00;;;0.77;;
68806;SDS011;55800;54.272;18.558;2023-08-30T07:36:25;0.80;;;0.80;;
68806;SDS011;55800;54.272;18.558;2023-08-30T07:39:12;0.80;;;0.80;;
68806;SDS011;55800;54.272;18.558;2023-08-30T07:41:43;1.48;;;0.82;;
68806;SDS011;55800;54.272;18.558;2023-08-30T07:44:12;1.13;;;0.90;;
68806;SDS011;55800;54.272;18.558;2023-08-30T07:46:43;3.25;;;1.20;;
68806;SDS011;55800;54.272;18.558;2023-08-30T07:49:12;1.77;;;0.80;;
68806;SDS011;55800;54.272;18.558;2023-08-30T07:51:41;1.48;;;1.00;;
68806;SDS011;55800;54.272;18.558;2023-08-30T07:54:11;2.35;;;0.77;;
68806;SDS011;55800;54.272;18.558;2023-08-30T07:56:40;1.95;;;1.00;;
68806;SDS011;55800;54.272;18.558;2023-08-30T07:59:12;1.40;;;0.75;;
68806;SDS011;55800;54.272;18.558;2023-08-30T08:01:42;2.42;;;1.00;;
68806;SDS011;55800;54.272;18.558;2023-08-30T08:04:11;2.85;;;0.80;;
68806;SDS011;55800;54.272;18.558;2023-08-30T08:06:40;2.17;;;1.10;;
68806;SDS011;55800;54.272;18.558;2023-08-30T08:09:22;2.00;;;1.23;;
68806;SDS011;55800;54.272;18.558;2023-08-30T08:11:52;0.95;;;0.85;;
68806;SDS011;55800;54.272;18.558;2023-08-30T08:14:24;0.93;;;0.75;;
68806;SDS011;55800;54.272;18.558;2023-08-30T08:16:54;1.10;;;0.80;;
68806;SDS011;55800;54.272;18.558;2023-08-30T08:19:23;1.63;;;0.82;;
68806;SDS011;55800;54.272;18.558;2023-08-30T08:21:53;1.20;;;1.10;;
68806;SDS011;55800;54.272;18.558;2023-08-30T08:24:23;0.73;;;0.70;;
68806;SDS011;55800;54.272;18.558;2023-08-30T08:26:52;0.95;;;0.77;;
68806;SDS011;55800;54.272;18.558;2023-08-30T08:29:21;3.63;;;0.88;;
68806;SDS011;55800;54.272;18.558;2023-08-30T08:31:52;1.48;;;1.10;;
68806;SDS011;55800;54.272;18.558;2023-08-30T08:34:21;1.58;;;0.73;;
68806;SDS011;55800;54.272;18.558;2023-08-30T08:36:52;2.05;;;0.80;;
68806;SDS011;55800;54.272;18.558;2023-08-30T08:39:21;1.58;;;1.00;;
68806;SDS011;55800;54.272;18.558;2023-08-30T08:41:51;0.70;;;0.60;;
68806;SDS011;55800;54.272;18.558;2023-08-30T08:44:21;5.18;;;1.02;;
68806;SDS011;55800;54.272;18.558;2023-08-30T08:46:54;1.95;;;0.57;;
68806;SDS011;55800;54.272;18.558;2023-08-30T08:49:23;2.15;;;0.82;;
68806;SDS011;55800;54.272;18.558;2023-08-30T08:51:55;2.70;;;0.80;;
68806;SDS011;55800;54.272;18.558;2023-08-30T08:54:24;0.77;;;0.50;;
68806;SDS011;55800;54.272;18.558;2023-08-30T08:56:55;1.42;;;0.50;;
68806;SDS011;55800;54.272;18.558;2023-08-30T08:59:27;2.00;;;0.88;;
68806;SDS011;55800;54.272;18.558;2023-08-30T09:01:56;1.80;;;1.10;;
68806;SDS011;55800;54.272;18.558;2023-08-30T09:04:27;1.30;;;1.15;;
68806;SDS011;55800;54.272;18.558;2023-08-30T09:06:59;3.25;;;0.75;;
68806;SDS011;55800;54.272;18.558;2023-08-30T09:09:29;0.60;;;0.60;;
68806;SDS011;55800;54.272;18.558;2023-08-30T09:11:59;1.85;;;0.70;;
68806;SDS011;55800;54.272;18.558;2023-08-30T09:14:30;1.25;;;0.70;;
68806;SDS011;55800;54.272;18.558;2023-08-30T09:17:00;2.38;;;1.00;;
68806;SDS011;55800;54.272;18.558;2023-08-30T09:19:29;2.17;;;0.70;;
68806;SDS011;55800;54.272;18.558;2023-08-30T09:21:59;0.80;;;0.75;;
68806;SDS011;55800;54.272;18.558;2023-08-30T09:24:37;1.25;;;0.80;;
68806;SDS011;55800;54.272;18.558;2023-08-30T09:27:07;1.67;;;0.83;;
68806;SDS011;55800;54.272;18.558;2023-08-30T09:29:37;1.42;;;0.70;;
68806;SDS011;55800;54.272;18.558;2023-08-30T09:32:12;1.52;;;0.73;;
68806;SDS011;55800;54.272;18.558;2023-08-30T09:34:48;2.00;;;0.85;;
68806;SDS011;55800;54.272;18.558;2023-08-30T09:37:19;1.95;;;0.93;;
68806;SDS011;55800;54.272;18.558;2023-08-30T09:39:49;1.17;;;0.80;;
68806;SDS011;55800;54.272;18.558;2023-08-30T09:42:19;1.15;;;0.75;;
68806;SDS011;55800;54.272;18.558;2023-08-30T09:44:50;1.33;;;0.85;;
68806;SDS011;55800;54.272;18.558;2023-08-30T09:47:20;1.38;;;0.77;;
68806;SDS011;55800;54.272;18.558;2023-08-30T09:49:52;1.10;;;0.60;;
68806;SDS011;55800;54.272;18.558;2023-08-30T09:52:23;1.58;;;0.80;;
68806;SDS011;55800;54.272;18.558;2023-08-30T09:54:54;2.40;;;0.93;;
68806;SDS011;55800;54.272;18.558;2023-08-30T09:57:24;1.33;;;0.63;;
68806;SDS011;55800;54.272;18.558;2023-08-30T09:59:56;2.67;;;1.10;;
68806;SDS011;55800;54.272;18.558;2023-08-30T10:02:30;1.65;;;0.82;;
68806;SDS011;55800;54.272;18.558;2023-08-30T10:05:01;1.38;;;0.98;;
68806;SDS011;55800;54.272;18.558;2023-08-30T10:07:32;2.95;;;1.00;;
68806;SDS011;55800;54.272;18.558;2023-08-30T10:10:05;2.08;;;0.93;;
68806;SDS011;55800;54.272;18.558;2023-08-30T10:12:36;3.28;;;1.05;;
68806;SDS011;55800;54.272;18.558;2023-08-30T10:15:10;1.10;;;0.73;;
68806;SDS011;55800;54.272;18.558;2023-08-30T10:17:41;2.78;;;1.15;;
68806;SDS011;55800;54.272;18.558;2023-08-30T10:23:43;1.33;;;0.90;;
68806;SDS011;55800;54.272;18.558;2023-08-30T10:26:16;1.92;;;1.02;;
68806;SDS011;55800;54.272;18.558;2023-08-30T10:28:57;1.52;;;0.82;;
68806;SDS011;55800;54.272;18.558;2023-08-30T10:32:18;1.48;;;0.75;;
68806;SDS011;55800;54.272;18.558;2023-08-30T10:34:51;1.38;;;0.70;;
68806;SDS011;55800;54.272;18.558;2023-08-30T10:37:39;2.08;;;0.77;;
68806;SDS011;55800;54.272;18.558;2023-08-30T10:40:45;1.02;;;0.70;;
68806;SDS011;55800;54.272;18.558;2023-08-30T10:43:41;2.72;;;0.95;;
68806;SDS011;55800;54.272;18.558;2023-08-30T10:46:31;1.90;;;0.90;;
68806;SDS011;55800;54.272;18.558;2023-08-30T10:49:12;3.10;;;1.02;;
68806;SDS011;55800;54.272;18.558;2023-08-30T10:55:07;2.85;;;0.70;;
68806;SDS011;55800;54.272;18.558;2023-08-30T10:57:59;2.08;;;0.73;;
68806;SDS011;55800;54.272;18.558;2023-08-30T11:01:37;1.75;;;0.88;;
68806;SDS011;55800;54.272;18.558;2023-08-30T11:04:14;3.03;;;2.03;;
68806;SDS011;55800;54.272;18.558;2023-08-30T11:06:44;1.20;;;0.82;;
68806;SDS011;55800;54.272;18.558;2023-08-30T11:09:17;1.13;;;0.77;;
68806;SDS011;55800;54.272;18.558;2023-08-30T11:11:48;1.95;;;1.00;;
68806;SDS011;55800;54.272;18.558;2023-08-30T11:14:19;3.13;;;0.80;;
68806;SDS011;55800;54.272;18.558;2023-08-30T11:16:48;2.70;;;1.15;;
68806;SDS011;55800;54.272;18.558;2023-08-30T11:19:19;1.73;;;0.93;;
68806;SDS011;55800;54.272;18.558;2023-08-30T11:21:49;1.25;;;0.82;;
68806;SDS011;55800;54.272;18.558;2023-08-30T11:24:18;1.95;;;1.02;;
68806;SDS011;55800;54.272;18.558;2023-08-30T11:26:52;3.85;;;1.00;;
68806;SDS011;55800;54.272;18.558;2023-08-30T11:29:21;3.55;;;1.10;;
68806;SDS011;55800;54.272;18.558;2023-08-30T11:31:50;2.65;;;0.80;;
68806;SDS011;55800;54.272;18.558;2023-08-30T11:34:22;4.72;;;0.93;;
68806;SDS011;55800;54.272;18.558;2023-08-30T11:36:51;2.03;;;1.10;;
68806;SDS011;55800;54.272;18.558;2023-08-30T11:39:21;1.25;;;0.85;;
68806;SDS011;55800;54.272;18.558;2023-08-30T11:41:51;2.58;;;0.90;;
68806;SDS011;55800;54.272;18.558;2023-08-30T11:44:24;2.55;;;1.00;;
68806;SDS011;55800;54.272;18.558;2023-08-30T11:46:59;4.00;;;0.98;;
68806;SDS011;55800;54.272;18.558;2023-08-30T11:49:29;2.33;;;0.90;;
68806;SDS011;55800;54.272;18.558;2023-08-30T11:52:01;1.70;;;0.95;;
68806;SDS011;55800;54.272;18.558;2023-08-30T11:54:31;2.67;;;1.48;;
68806;SDS011;55800;54.272;18.558;2023-08-30T11:57:00;1.25;;;0.73;;
68806;SDS011;55800;54.272;18.558;2023-08-30T11:59:30;3.35;;;1.35;;
68806;SDS011;55800;54.272;18.558;2023-08-30T12:02:03;1.70;;;1.00;;
68806;SDS011;55800;54.272;18.558;2023-08-30T12:04:40;2.08;;;1.23;;
68806;SDS011;55800;54.272;18.558;2023-08-30T12:07:20;2.85;;;1.02;;
68806;SDS011;55800;54.272;18.558;2023-08-30T12:09:51;4.53;;;1.08;;
68806;SDS011;55800;54.272;18.558;2023-08-30T12:12:22;4.05;;;0.95;;
68806;SDS011;55800;54.272;18.558;2023-08-30T12:14:55;2.17;;;1.10;;
68806;SDS011;55800;54.272;18.558;2023-08-30T12:17:25;3.10;;;1.00;;
68806;SDS011;55800;54.272;18.558;2023-08-30T12:19:56;1.30;;;1.05;;
68806;SDS011;55800;54.272;18.558;2023-08-30T12:22:35;2.42;;;1.13;;
68806;SDS011;55800;54.272;18.558;2023-08-30T12:25:16;1.20;;;0.93;;
68806;SDS011;55800;54.272;18.558;2023-08-30T12:27:46;2.20;;;1.27;;
68806;SDS011;55800;54.272;18.558;2023-08-30T12:30:16;4.70;;;1.10;;
68806;SDS011;55800;54.272;18.558;2023-08-30T12:32:45;3.03;;;1.02;;
68806;SDS011;55800;54.272;18.558;2023-08-30T12:35:17;1.58;;;1.30;;
68806;SDS011;55800;54.272;18.558;2023-08-30T12:37:46;1.55;;;0.85;;
68806;SDS011;55800;54.272;18.558;2023-08-30T12:40:16;1.77;;;1.00;;
68806;SDS011;55800;54.272;18.558;2023-08-30T12:42:45;2.35;;;1.35;;
68806;SDS011;55800;54.272;18.558;2023-08-30T12:45:15;1.00;;;0.90;;
68806;SDS011;55800;54.272;18.558;2023-08-30T12:47:44;1.48;;;0.90;;
68806;SDS011;55800;54.272;18.558;2023-08-30T12:50:14;1.90;;;0.82;;
68806;SDS011;55800;54.272;18.558;2023-08-30T12:52:44;4.45;;;1.50;;
68806;SDS011;55800;54.272;18.558;2023-08-30T12:55:15;4.20;;;1.20;;
68806;SDS011;55800;54.272;18.558;2023-08-30T12:57:48;1.90;;;0.80;;
68806;SDS011;55800;54.272;18.558;2023-08-30T13:00:18;1.08;;;0.80;;
68806;SDS011;55800;54.272;18.558;2023-08-30T13:02:48;2.40;;;1.63;;
68806;SDS011;55800;54.272;18.558;2023-08-30T13:05:17;1.98;;;1.05;;
68806;SDS011;55800;54.272;18.558;2023-08-30T13:07:49;2.30;;;0.60;;
68806;SDS011;55800;54.272;18.558;2023-08-30T13:10:19;3.30;;;0.90;;
68806;SDS011;55800;54.272;18.558;2023-08-30T13:12:48;2.05;;;0.90;;
68806;SDS011;55800;54.272;18.558;2023-08-30T13:15:18;3.55;;;0.93;;
68806;SDS011;55800;54.272;18.558;2023-08-30T13:17:47;1.80;;;1.00;;
68806;SDS011;55800;54.272;18.558;2023-08-30T13:20:18;1.70;;;1.15;;
68806;SDS011;55800;54.272;18.558;2023-08-30T13:22:47;1.42;;;0.80;;
68806;SDS011;55800;54.272;18.558;2023-08-30T13:25:18;1.58;;;0.93;;
68806;SDS011;55800;54.272;18.558;2023-08-30T13:27:47;1.67;;;1.25;;
68806;SDS011;55800;54.272;18.558;2023-08-30T13:30:17;4.75;;;1.35;;
68806;SDS011;55800;54.272;18.558;2023-08-30T13:32:47;1.67;;;1.02;;
68806;SDS011;55800;54.272;18.558;2023-08-30T13:35:16;1.90;;;0.85;;
68806;SDS011;55800;54.272;18.558;2023-08-30T13:37:45;4.43;;;1.05;;
68806;SDS011;55800;54.272;18.558;2023-08-30T13:40:16;2.05;;;1.00;;
68806;SDS011;55800;54.272;18.558;2023-08-30T13:42:46;3.40;;;0.90;;
68806;SDS011;55800;54.272;18.558;2023-08-30T13:45:15;1.05;;;0.80;;
68806;SDS011;55800;54.272;18.558;2023-08-30T13:47:44;1.38;;;0.75;;
68806;SDS011;55800;54.272;18.558;2023-08-30T13:50:14;5.32;;;0.93;;
68806;SDS011;55800;54.272;18.558;2023-08-30T13:52:44;3.25;;;1.40;;
68806;SDS011;55800;54.272;18.558;2023-08-30T13:55:14;2.08;;;1.15;;
68806;SDS011;55800;54.272;18.558;2023-08-30T13:57:45;2.65;;;1.08;;
68806;SDS011;55800;54.272;18.558;2023-08-30T14:00:15;2.13;;;1.08;;
68806;SDS011;55800;54.272;18.558;2023-08-30T14:02:45;2.22;;;0.93;;
68806;SDS011;55800;54.272;18.558;2023-08-30T14:05:14;4.43;;;1.35;;
68806;SDS011;55800;54.272;18.558;2023-08-30T14:07:45;1.30;;;1.00;;
68806;SDS011;55800;54.272;18.558;2023-08-30T14:10:14;2.60;;;1.00;;
68806;SDS011;55800;54.272;18.558;2023-08-30T14:12:47;3.83;;;1.92;;
68806;SDS011;55800;54.272;18.558;2023-08-30T14:15:16;3.30;;;1.50;;
68806;SDS011;55800;54.272;18.558;2023-08-30T14:17:46;4.63;;;1.05;;
68806;SDS011;55800;54.272;18.558;2023-08-30T14:20:16;3.80;;;1.38;;
68806;SDS011;55800;54.272;18.558;2023-08-30T14:22:45;1.88;;;1.15;;
68806;SDS011;55800;54.272;18.558;2023-08-30T14:25:15;1.80;;;1.00;;
68806;SDS011;55800;54.272;18.558;2023-08-30T14:27:45;2.15;;;1.10;;
68806;SDS011;55800;54.272;18.558;2023-08-30T14:30:15;1.52;;;1.10;;
68806;SDS011;55800;54.272;18.558;2023-08-30T14:32:45;4.07;;;1.20;;
68806;SDS011;55800;54.272;18.558;2023-08-30T14:35:14;3.03;;;0.90;;
68806;SDS011;55800;54.272;18.558;2023-08-30T14:37:43;2.50;;;1.20;;
68806;SDS011;55800;54.272;18.558;2023-08-30T14:40:14;5.55;;;1.10;;
68806;SDS011;55800;54.272;18.558;2023-08-30T14:42:45;2.28;;;0.88;;
68806;SDS011;55800;54.272;18.558;2023-08-30T14:45:14;1.88;;;0.80;;
68806;SDS011;55800;54.272;18.558;2023-08-30T14:47:44;3.75;;;0.95;;
68806;SDS011;55800;54.272;18.558;2023-08-30T14:50:13;2.13;;;0.93;;
68806;SDS011;55800;54.272;18.558;2023-08-30T14:52:43;5.07;;;1.40;;
68806;SDS011;55800;54.272;18.558;2023-08-30T14:55:12;2.20;;;1.23;;
68806;SDS011;55800;54.272;18.558;2023-08-30T14:57:43;3.15;;;1.27;;
68806;SDS011;55800;54.272;18.558;2023-08-30T15:00:13;2.42;;;1.83;;
68806;SDS011;55800;54.272;18.558;2023-08-30T15:02:43;3.50;;;1.20;;
68806;SDS011;55800;54.272;18.558;2023-08-30T15:05:13;3.80;;;1.15;;
68806;SDS011;55800;54.272;18.558;2023-08-30T15:07:42;1.33;;;1.00;;
68806;SDS011;55800;54.272;18.558;2023-08-30T15:10:12;2.17;;;0.90;;
68806;SDS011;55800;54.272;18.558;2023-08-30T15:12:44;2.40;;;1.20;;
68806;SDS011;55800;54.272;18.558;2023-08-30T15:15:14;5.45;;;1.60;;
68806;SDS011;55800;54.272;18.558;2023-08-30T15:17:45;1.50;;;0.98;;
68806;SDS011;55800;54.272;18.558;2023-08-30T15:20:15;2.08;;;1.20;;
68806;SDS011;55800;54.272;18.558;2023-08-30T15:22:44;2.13;;;1.00;;
68806;SDS011;55800;54.272;18.558;2023-08-30T15:25:13;2.97;;;1.30;;